Time;durP1;ratioP1;P1;durP2;ratioP2;P2;SDS_P1;SDS_P2;PMS_P1;PMS_P2;Temp;Humidity;BMP_temperature;BMP_pressure;BME280_temperature;BME280_humidity;BME280_pressure;Samples;Min_cycle;Max_cycle;Signal;HPM_P1;HPM_P2
2022/01/06 00:01:01;;;;;;;13.95;2.10;;;4.10;99.90;;;;;;2209559;64;20677;-78
2022/01/06 00:03:39;;;;;;;19.08;2.95;;;4.00;99.90;;;;;;2210481;64;20202;-78
2022/01/06 00:06:16;;;;;;;6.55;1.48;;;3.90;99.90;;;;;;2213198;64;20329;-78
2022/01/06 00:08:54;;;;;;;7.05;1.63;;;3.80;99.90;;;;;;2214186;64;20255;-77
2022/01/06 00:11:36;;;;;;;7.53;1.80;;;3.80;99.90;;;;;;2211301;64;20215;-78
2022/01/06 00:14:35;;;;;;;7.72;1.70;;;3.70;99.90;;;;;;2215453;64;20348;-78
2022/01/06 00:26:02;;;;;;;16.08;3.50;;;3.50;99.90;;;;;;2215758;64;20299;-78
2022/01/06 00:28:44;;;;;;;11.52;2.58;;;3.60;99.90;;;;;;2196882;65;20344;-78
2022/01/06 00:31:25;;;;;;;9.38;2.58;;;3.50;99.90;;;;;;2177349;65;20701;-78
2022/01/06 00:34:10;;;;;;;14.07;2.67;;;3.50;99.90;;;;;;2168085;65;20710;-79
2022/01/06 00:36:52;;;;;;;13.00;2.40;;;3.50;99.90;;;;;;2160958;66;20181;-78
2022/01/06 00:39:36;;;;;;;14.32;3.38;;;3.70;99.90;;;;;;2147136;66;20286;-78
2022/01/06 00:42:20;;;;;;;13.38;3.28;;;3.70;99.90;;;;;;2126470;67;20310;-78
2022/01/06 00:45:06;;;;;;;17.52;3.33;;;3.50;99.90;;;;;;2126469;67;20270;-78
2022/01/06 00:47:50;;;;;;;13.35;2.95;;;3.60;99.90;;;;;;2126168;67;20276;-78
2022/01/06 00:50:35;;;;;;;17.08;3.25;;;3.60;99.90;;;;;;2125625;67;20269;-77
2022/01/06 00:53:18;;;;;;;8.60;2.40;;;3.70;99.90;;;;;;2119688;67;20342;-78
2022/01/06 00:56:03;;;;;;;14.48;3.17;;;3.70;99.90;;;;;;2134588;66;20171;-76
2022/01/06 00:58:48;;;;;;;6.82;2.10;;;3.90;99.90;;;;;;2148741;66;20257;-78
2022/01/06 01:01:34;;;;;;;9.43;2.42;;;3.80;99.90;;;;;;2147681;66;20335;-76
2022/01/06 01:04:19;;;;;;;11.93;2.72;;;3.80;99.90;;;;;;2148405;66;20362;-77
2022/01/06 01:07:09;;;;;;;13.40;2.65;;;3.80;99.90;;;;;;2161118;66;20214;-80
2022/01/06 01:09:56;;;;;;;;;;;3.80;99.90;;;;;;2154270;66;20250;-79
2022/01/06 01:12:47;;;;;;;17.52;3.13;;;3.80;99.90;;;;;;2137814;67;20091;-78
2022/01/06 01:15:32;;;;;;;14.35;2.63;;;3.80;99.90;;;;;;2148920;66;20202;-77
2022/01/06 01:18:19;;;;;;;15.10;3.60;;;3.80;99.90;;;;;;2146198;66;20851;-77
2022/01/06 01:21:03;;;;;;;23.30;3.50;;;3.70;99.90;;;;;;2146969;66;20342;-77
2022/01/06 01:23:45;;;;;;;12.30;2.90;;;3.80;99.90;;;;;;2143529;66;20212;-77
2022/01/06 01:26:27;;;;;;;15.27;2.72;;;3.80;99.90;;;;;;2132007;67;20769;-77
2022/01/06 01:29:18;;;;;;;12.65;2.78;;;3.90;99.90;;;;;;2119919;67;20302;-76
2022/01/06 01:32:00;;;;;;;9.18;2.95;;;4.00;99.90;;;;;;2133461;66;20658;-77
2022/01/06 01:34:46;;;;;;;10.77;3.40;;;4.00;99.90;;;;;;2140466;67;20259;-77
2022/01/06 01:37:31;;;;;;;11.10;2.88;;;4.00;99.90;;;;;;2127729;66;20199;-77
2022/01/06 01:40:15;;;;;;;10.73;2.38;;;4.00;99.90;;;;;;2132518;67;20299;-79
2022/01/06 01:43:00;;;;;;;9.75;2.58;;;4.10;99.90;;;;;;2119913;67;20227;-77
2022/01/06 01:45:56;;;;;;;11.30;2.70;;;4.10;99.90;;;;;;2111617;67;20334;-75
2022/01/06 01:48:48;;;;;;;5.47;2.13;;;4.10;99.90;;;;;;2118815;67;20237;-76
2022/01/06 01:51:34;;;;;;;9.38;2.33;;;4.30;99.90;;;;;;2121378;67;21102;-78
2022/01/06 01:54:21;;;;;;;10.38;2.50;;;4.00;99.90;;;;;;2120929;67;20410;-78
2022/01/06 01:57:05;;;;;;;11.82;2.58;;;3.90;99.90;;;;;;2134746;67;20797;-78
2022/01/06 01:59:50;;;;;;;9.73;2.28;;;3.90;99.90;;;;;;2138868;67;20514;-77
2022/01/06 02:02:33;;;;;;;12.25;2.08;;;3.90;99.90;;;;;;2128857;67;20258;-78
2022/01/06 02:05:25;;;;;;;11.15;2.33;;;3.80;99.90;;;;;;2125919;66;20204;-78
2022/01/06 02:08:08;;;;;;;12.52;2.17;;;3.70;99.90;;;;;;2139382;67;20264;-78
2022/01/06 02:10:49;;;;;;;8.25;2.30;;;3.70;99.90;;;;;;2132523;67;20608;-79
2022/01/06 02:13:31;;;;;;;9.50;2.35;;;3.80;99.90;;;;;;2136756;67;20175;-78
2022/01/06 02:16:14;;;;;;;10.32;2.65;;;3.80;99.90;;;;;;2133300;67;20275;-78
2022/01/06 02:18:59;;;;;;;9.77;3.13;;;3.90;99.90;;;;;;2145927;66;20267;-77
2022/01/06 02:21:41;;;;;;;7.38;2.78;;;4.00;99.90;;;;;;2142765;66;20178;-78
2022/01/06 02:24:23;;;;;;;11.15;3.13;;;3.90;99.90;;;;;;2132622;67;20230;-79
2022/01/06 02:27:05;;;;;;;10.40;2.30;;;3.90;99.90;;;;;;2138991;66;20212;-80
2022/01/06 02:29:48;;;;;;;13.80;2.85;;;3.70;99.90;;;;;;2142878;66;20744;-78
2022/01/06 02:32:29;;;;;;;15.15;2.28;;;3.60;99.90;;;;;;2132686;67;20335;-78
2022/01/06 02:35:14;;;;;;;6.55;2.13;;;3.50;99.90;;;;;;2132526;67;20205;-79
2022/01/06 02:37:56;;;;;;;10.38;2.58;;;3.40;99.90;;;;;;2133376;67;20242;-78
2022/01/06 02:40:40;;;;;;;12.23;2.85;;;3.30;99.90;;;;;;2124831;67;20268;-79
2022/01/06 02:43:24;;;;;;;10.80;2.60;;;3.20;99.90;;;;;;2124079;67;20358;-77
2022/01/06 02:46:07;;;;;;;9.50;2.47;;;3.10;99.90;;;;;;2113622;67;20256;-78
2022/01/06 02:48:51;;;;;;;10.60;2.70;;;3.00;99.90;;;;;;2121828;67;20225;-78
2022/01/06 02:51:33;;;;;;;11.70;2.85;;;3.00;99.90;;;;;;2120731;67;20184;-79
2022/01/06 02:54:15;;;;;;;14.60;3.58;;;2.90;99.90;;;;;;2131680;67;20231;-77
2022/01/06 02:56:56;;;;;;;12.52;2.63;;;2.80;99.90;;;;;;2128744;67;20208;-80
2022/01/06 02:59:40;;;;;;;14.80;2.80;;;2.80;99.90;;;;;;2112426;67;20201;-79
2022/01/06 03:02:25;;;;;;;11.48;2.78;;;2.80;99.90;;;;;;2104007;67;20335;-77
2022/01/06 03:05:10;;;;;;;14.65;3.20;;;2.80;99.90;;;;;;2120074;67;20674;-78
2022/01/06 03:07:51;;;;;;;11.65;2.75;;;2.90;99.90;;;;;;2124709;67;20267;-78
2022/01/06 03:10:37;;;;;;;11.93;3.00;;;2.90;99.90;;;;;;2117694;67;20259;-78
2022/01/06 03:13:20;;;;;;;8.85;2.83;;;2.90;99.90;;;;;;2130526;67;20193;-77
2022/01/06 03:16:05;;;;;;;9.77;3.10;;;2.90;99.90;;;;;;2124038;67;20291;-77
2022/01/06 03:18:47;;;;;;;18.02;3.83;;;2.70;99.90;;;;;;2131426;67;20249;-78
2022/01/06 03:21:29;;;;;;;17.17;3.70;;;2.80;99.90;;;;;;2126671;67;20708;-77
2022/01/06 03:24:11;;;;;;;13.65;3.08;;;2.80;99.90;;;;;;2128262;67;20374;-78
2022/01/06 03:26:53;;;;;;;12.60;3.05;;;2.80;99.90;;;;;;2132460;67;20200;-78
2022/01/06 03:29:35;;;;;;;13.63;2.80;;;2.90;99.90;;;;;;2126199;67;20308;-77
2022/01/06 03:32:18;;;;;;;12.85;3.00;;;2.80;99.90;;;;;;2141261;66;20298;-78
2022/01/06 03:34:59;;;;;;;20.50;3.72;;;2.80;99.90;;;;;;2139178;66;20307;-78
2022/01/06 03:37:41;;;;;;;15.00;3.45;;;2.80;99.90;;;;;;2131713;67;20393;-78
2022/01/06 03:40:23;;;;;;;16.58;3.17;;;2.70;99.90;;;;;;2124586;67;20815;-78
2022/01/06 03:43:05;;;;;;;11.73;3.20;;;2.70;99.90;;;;;;2128347;67;20317;-79
2022/01/06 03:45:47;;;;;;;15.00;3.55;;;2.70;99.90;;;;;;2130667;67;20166;-78
2022/01/06 03:48:28;;;;;;;16.88;3.08;;;2.70;99.90;;;;;;2128695;67;20338;-79
2022/01/06 03:51:12;;;;;;;11.07;3.22;;;2.60;99.90;;;;;;2143474;66;20272;-77
2022/01/06 03:53:57;;;;;;;11.85;3.00;;;2.60;99.90;;;;;;2143924;66;20199;-78
2022/01/06 03:56:38;;;;;;;12.60;3.53;;;2.60;99.90;;;;;;2128669;67;20321;-80
2022/01/06 03:59:21;;;;;;;14.70;3.40;;;2.60;99.90;;;;;;2125437;67;20204;-79
2022/01/06 04:02:04;;;;;;;11.43;2.83;;;2.50;99.90;;;;;;2113320;67;20316;-79
2022/01/06 04:04:46;;;;;;;16.02;3.25;;;2.50;99.90;;;;;;2103033;68;20719;-80
2022/01/06 04:07:28;;;;;;;9.73;2.63;;;2.40;99.90;;;;;;2111876;67;20196;-79
2022/01/06 04:10:11;;;;;;;15.18;2.97;;;2.40;99.90;;;;;;2124743;67;20673;-79
2022/01/06 04:12:56;;;;;;;16.05;3.17;;;2.30;99.90;;;;;;2132034;67;20795;-79
2022/01/06 04:15:39;;;;;;;11.52;2.30;;;2.60;99.90;;;;;;2134675;66;20718;-79
2022/01/06 04:18:24;;;;;;;14.88;3.33;;;2.20;99.90;;;;;;2140086;66;20626;-79
2022/01/06 04:21:07;;;;;;;17.40;3.72;;;2.20;99.90;;;;;;2143803;66;20221;-78
2022/01/06 04:23:50;;;;;;;10.02;3.22;;;2.20;99.90;;;;;;2146596;66;20229;-79
2022/01/06 04:26:34;;;;;;;10.77;2.50;;;2.10;99.90;;;;;;2149084;66;20329;-78
2022/01/06 04:29:16;;;;;;;8.40;2.70;;;2.00;99.90;;;;;;2147207;66;20170;-78
2022/01/06 04:31:58;;;;;;;14.02;3.05;;;2.00;99.90;;;;;;2145465;66;20254;-78
2022/01/06 04:34:41;;;;;;;17.45;3.30;;;2.00;99.90;;;;;;2118797;67;20193;-79
2022/01/06 04:37:30;;;;;;;9.35;2.63;;;2.00;99.90;;;;;;2129166;67;20274;-78
2022/01/06 04:40:14;;;;;;;13.52;4.07;;;2.00;99.90;;;;;;2123058;67;20270;-79
2022/01/06 04:42:55;;;;;;;13.50;2.90;;;2.00;99.90;;;;;;2126045;67;20399;-79
2022/01/06 04:45:37;;;;;;;11.32;3.05;;;1.90;99.90;;;;;;2121205;67;20294;-78
2022/01/06 04:48:20;;;;;;;13.10;3.67;;;2.30;99.90;;;;;;2126638;67;20830;-79
2022/01/06 04:51:04;;;;;;;26.77;3.83;;;1.90;99.90;;;;;;2108759;67;20178;-79
2022/01/06 04:53:46;;;;;;;14.68;3.05;;;1.80;99.90;;;;;;2111316;67;20667;-78
2022/01/06 04:56:27;;;;;;;10.80;2.80;;;1.80;99.90;;;;;;2119228;67;20181;-78
2022/01/06 04:59:10;;;;;;;17.27;3.15;;;1.70;99.90;;;;;;2127608;67;20280;-79
2022/01/06 05:01:55;;;;;;;10.82;3.15;;;1.80;99.90;;;;;;2147907;66;20301;-79
2022/01/06 05:04:36;;;;;;;15.27;3.22;;;1.70;99.90;;;;;;2148135;66;20663;-79
2022/01/06 05:07:19;;;;;;;16.30;4.10;;;1.70;99.90;;;;;;2169645;66;20259;-79
2022/01/06 05:10:05;;;;;;;15.15;3.30;;;1.70;99.90;;;;;;2156445;66;20388;-78
2022/01/06 05:12:46;;;;;;;14.18;3.10;;;1.60;99.90;;;;;;2149959;66;20752;-78
2022/01/06 05:15:29;;;;;;;14.13;3.50;;;1.60;99.90;;;;;;2143013;66;20273;-79
2022/01/06 05:18:11;;;;;;;10.55;3.35;;;1.50;99.90;;;;;;2140774;66;20660;-77
2022/01/06 05:20:53;;;;;;;11.32;3.00;;;1.50;99.90;;;;;;2141622;66;20225;-80
2022/01/06 05:23:35;;;;;;;12.07;2.70;;;1.50;99.90;;;;;;2135419;66;20308;-79
2022/01/06 05:26:18;;;;;;;17.13;3.00;;;1.30;99.90;;;;;;2127844;67;20409;-78
2022/01/06 05:29:00;;;;;;;16.23;3.65;;;1.20;99.90;;;;;;2118895;67;20865;-79
2022/01/06 05:31:41;;;;;;;11.80;4.00;;;1.10;99.90;;;;;;2104820;67;20867;-78
2022/01/06 05:34:23;;;;;;;12.63;3.58;;;1.10;99.90;;;;;;2097900;68;20175;-79
2022/01/06 05:37:05;;;;;;;22.00;3.53;;;1.00;99.90;;;;;;2111741;67;20984;-78
2022/01/06 05:39:51;;;;;;;16.27;4.22;;;0.90;99.90;;;;;;2113372;67;20383;-78
2022/01/06 05:42:35;;;;;;;14.98;3.47;;;0.90;99.90;;;;;;2098777;68;20266;-79
2022/01/06 05:45:18;;;;;;;16.25;3.83;;;0.80;99.90;;;;;;2120408;67;20411;-79
2022/01/06 05:48:01;;;;;;;11.02;4.00;;;0.90;99.90;;;;;;2116503;67;20253;-78
2022/01/06 05:50:48;;;;;;;;;;;0.80;99.90;;;;;;2133728;67;20277;-79
2022/01/06 05:53:30;;;;;;;14.27;4.32;;;0.70;99.90;;;;;;2146798;66;20112;-78
2022/01/06 05:56:14;;;;;;;17.20;4.13;;;0.70;99.90;;;;;;2139912;66;20411;-79
2022/01/06 05:58:58;;;;;;;15.77;6.30;;;0.60;99.90;;;;;;2148725;66;20324;-78
2022/01/06 06:01:39;;;;;;;13.18;3.28;;;0.50;99.90;;;;;;2155473;66;20322;-77
2022/01/06 06:04:21;;;;;;;17.67;4.10;;;0.50;99.90;;;;;;2147152;66;20182;-79
2022/01/06 06:07:04;;;;;;;19.73;3.60;;;0.50;99.90;;;;;;2126953;67;20325;-79
2022/01/06 06:09:47;;;;;;;14.00;4.28;;;0.50;99.90;;;;;;2150380;66;20326;-78
2022/01/06 06:12:28;;;;;;;14.82;3.38;;;0.40;99.90;;;;;;2147662;66;20422;-77
2022/01/06 06:15:12;;;;;;;13.90;3.28;;;0.40;99.90;;;;;;2145652;66;20304;-79
2022/01/06 06:17:56;;;;;;;12.32;3.40;;;0.40;99.90;;;;;;2133571;66;20276;-79
2022/01/06 06:20:38;;;;;;;11.05;4.20;;;0.40;99.90;;;;;;2139635;66;20249;-78
2022/01/06 06:23:20;;;;;;;11.80;3.88;;;0.50;99.90;;;;;;2138025;67;20668;-79
2022/01/06 06:26:05;;;;;;;14.23;3.87;;;0.40;99.90;;;;;;2135301;67;20254;-78
2022/01/06 06:28:47;;;;;;;11.00;3.65;;;0.40;99.90;;;;;;2123274;67;20304;-79
2022/01/06 06:31:32;;;;;;;19.10;4.70;;;0.40;99.90;;;;;;2117655;67;20321;-79
2022/01/06 06:34:13;;;;;;;13.77;4.70;;;0.30;99.90;;;;;;2134297;67;20257;-79
2022/01/06 06:36:56;;;;;;;15.27;4.85;;;0.30;99.90;;;;;;2132084;67;20314;-78
2022/01/06 06:39:40;;;;;;;13.60;4.25;;;0.30;99.90;;;;;;2118359;67;20271;-79
2022/01/06 06:42:23;;;;;;;20.70;4.65;;;0.70;99.90;;;;;;2099052;68;20212;-78
2022/01/06 06:45:08;;;;;;;14.48;3.90;;;0.20;99.90;;;;;;2108281;67;20241;-78
2022/01/06 06:47:52;;;;;;;14.50;3.97;;;0.20;99.90;;;;;;2127466;67;20202;-78
2022/01/06 06:50:35;;;;;;;21.75;5.28;;;0.10;99.90;;;;;;2139627;66;20353;-80
2022/01/06 06:53:16;;;;;;;16.33;4.65;;;0.10;99.90;;;;;;2155430;66;20265;-79
2022/01/06 06:55:59;;;;;;;16.85;5.22;;;0.10;99.90;;;;;;2155896;66;20186;-78
2022/01/06 06:58:42;;;;;;;16.50;4.38;;;0.20;99.90;;;;;;2163002;66;20180;-78
2022/01/06 07:01:26;;;;;;;18.50;4.20;;;0.20;99.90;;;;;;2147092;66;20219;-79
2022/01/06 07:04:13;;;;;;;16.67;4.38;;;0.50;99.90;;;;;;2133228;67;20712;-79
2022/01/06 07:06:54;;;;;;;17.55;4.97;;;0.20;99.90;;;;;;2124802;67;20223;-78
2022/01/06 07:09:40;;;;;;;20.27;5.22;;;0.20;99.90;;;;;;2117705;67;20330;-78
2022/01/06 07:12:22;;;;;;;16.98;4.85;;;0.20;99.90;;;;;;2111615;67;20372;-79
2022/01/06 07:15:06;;;;;;;13.65;4.13;;;0.20;99.90;;;;;;2103563;67;20360;-79
2022/01/06 07:17:48;;;;;;;13.48;3.80;;;0.20;99.90;;;;;;2103655;67;20364;-78
2022/01/06 07:20:29;;;;;;;13.75;3.97;;;0.10;99.90;;;;;;2117276;67;20403;-78
2022/01/06 07:23:11;;;;;;;17.02;4.68;;;0.50;99.90;;;;;;2110451;67;20804;-79
2022/01/06 07:25:54;;;;;;;11.85;4.28;;;0.20;99.90;;;;;;2138002;66;20320;-78
2022/01/06 07:28:36;;;;;;;13.68;4.53;;;0.10;99.90;;;;;;2139066;67;20226;-79
2022/01/06 07:31:18;;;;;;;15.32;4.40;;;0.10;99.90;;;;;;2132106;67;20163;-78
2022/01/06 07:34:00;;;;;;;14.82;4.85;;;0.70;99.90;;;;;;2153936;66;20744;-77
2022/01/06 07:36:42;;;;;;;18.15;5.38;;;0.20;99.90;;;;;;2161747;66;21010;-78
2022/01/06 07:39:23;;;;;;;20.83;4.82;;;0.20;99.90;;;;;;2153324;66;20166;-78
2022/01/06 07:42:06;;;;;;;19.38;5.93;;;0.20;99.90;;;;;;2139356;67;20269;-79
2022/01/06 07:44:50;;;;;;;17.52;5.00;;;0.30;99.90;;;;;;2146447;66;20701;-78
2022/01/06 07:47:36;;;;;;;11.45;4.32;;;0.30;99.90;;;;;;2156798;66;20425;-78
2022/01/06 07:50:19;;;;;;;14.90;4.63;;;0.20;99.90;;;;;;2129518;67;20216;-78
2022/01/06 07:53:02;;;;;;;25.25;6.53;;;0.30;99.90;;;;;;2132365;67;20228;-77
2022/01/06 07:55:44;;;;;;;18.30;5.55;;;0.30;99.90;;;;;;2112479;67;20772;-78
2022/01/06 07:58:26;;;;;;;13.82;5.78;;;0.40;99.90;;;;;;2110908;67;20415;-78
2022/01/06 08:01:10;;;;;;;18.20;5.97;;;0.40;99.90;;;;;;2106327;67;20185;-79
2022/01/06 08:03:54;;;;;;;16.60;6.30;;;0.40;99.90;;;;;;2108798;67;20240;-76
2022/01/06 08:06:40;;;;;;;16.42;5.07;;;0.40;99.90;;;;;;2118004;67;20253;-79
2022/01/06 08:09:25;;;;;;;21.58;6.35;;;0.50;99.90;;;;;;2118116;67;20164;-78
2022/01/06 08:12:10;;;;;;;17.95;5.00;;;0.60;99.90;;;;;;2114146;67;20170;-77
2022/01/06 08:14:51;;;;;;;12.48;4.25;;;0.60;99.90;;;;;;2118424;67;20202;-77
2022/01/06 08:17:32;;;;;;;17.77;5.45;;;0.60;99.90;;;;;;2131935;67;21081;-79
2022/01/06 08:20:16;;;;;;;20.00;5.18;;;0.60;99.90;;;;;;2138783;67;20206;-79
2022/01/06 08:23:04;;;;;;;17.13;4.13;;;0.70;99.90;;;;;;2131245;67;20252;-78
2022/01/06 08:25:46;;;;;;;14.90;4.80;;;0.70;99.90;;;;;;2131853;66;20235;-78
2022/01/06 08:28:28;;;;;;;10.93;4.28;;;0.70;99.90;;;;;;2152098;66;20482;-78
2022/01/06 08:31:12;;;;;;;15.38;3.95;;;0.80;99.90;;;;;;2144137;66;20193;-78
2022/01/06 08:33:54;;;;;;;16.35;4.22;;;0.90;99.90;;;;;;2144646;66;20228;-78
2022/01/06 08:36:36;;;;;;;14.98;4.15;;;1.00;99.90;;;;;;2125304;67;20182;-79
2022/01/06 08:39:23;;;;;;;13.88;3.42;;;1.10;99.90;;;;;;2109883;67;20704;-80
2022/01/06 08:42:08;;;;;;;11.95;3.88;;;1.10;99.90;;;;;;2108596;67;20299;-79
2022/01/06 08:44:50;;;;;;;23.77;5.43;;;1.20;99.90;;;;;;2103249;68;20170;-79
2022/01/06 08:47:32;;;;;;;12.40;4.80;;;1.20;99.90;;;;;;2116612;67;20245;-78
2022/01/06 08:50:18;;;;;;;18.25;4.28;;;1.20;99.90;;;;;;2110714;67;20321;-79
2022/01/06 08:53:01;;;;;;;17.75;4.57;;;1.20;99.90;;;;;;2126523;67;20286;-76
2022/01/06 08:55:46;;;;;;;11.40;3.67;;;1.10;99.90;;;;;;2117375;67;20312;-76
2022/01/06 08:58:31;;;;;;;16.40;3.35;;;1.20;99.90;;;;;;2110642;67;20218;-77
2022/01/06 09:01:13;;;;;;;21.08;5.13;;;1.30;99.90;;;;;;2111064;67;20165;-81
2022/01/06 09:03:56;;;;;;;20.90;4.10;;;1.20;99.90;;;;;;2117551;67;20390;-78
2022/01/06 09:06:42;;;;;;;23.30;6.53;;;1.30;99.90;;;;;;2120369;67;20251;-79
2022/01/06 09:09:25;;;;;;;24.70;8.90;;;1.30;99.90;;;;;;2112245;67;20209;-76
2022/01/06 09:12:11;;;;;;;25.38;8.07;;;1.30;99.90;;;;;;2126199;67;20251;-79
2022/01/06 09:14:53;;;;;;;15.50;5.18;;;1.40;99.90;;;;;;2131265;67;20275;-77
2022/01/06 09:17:36;;;;;;;20.08;6.03;;;1.50;99.90;;;;;;2132271;67;20258;-77
2022/01/06 09:20:17;;;;;;;26.40;4.72;;;1.40;99.90;;;;;;2132604;67;20268;-76
2022/01/06 09:23:00;;;;;;;14.52;5.00;;;1.60;99.90;;;;;;2111286;67;20808;-76
2022/01/06 09:25:46;;;;;;;10.95;3.90;;;1.50;99.90;;;;;;2120704;67;20874;-75
2022/01/06 09:28:29;;;;;;;11.68;4.40;;;2.00;99.90;;;;;;2118150;67;20415;-75
2022/01/06 09:31:13;;;;;;;14.18;4.25;;;1.70;99.90;;;;;;2118191;67;20260;-76
2022/01/06 09:33:55;;;;;;;17.95;5.82;;;1.80;99.90;;;;;;2110048;67;20256;-76
2022/01/06 09:36:39;;;;;;;9.98;4.00;;;1.80;99.90;;;;;;2108914;67;20202;-76
2022/01/06 09:39:23;;;;;;;14.50;4.30;;;1.90;99.90;;;;;;2097016;68;20191;-76
2022/01/06 09:42:07;;;;;;;;;;;2.00;99.90;;;;;;2108293;67;20197;-77
2022/01/06 09:44:50;;;;;;;20.75;5.18;;;1.90;99.90;;;;;;2109684;67;20144;-76
2022/01/06 09:47:33;;;;;;;15.95;5.57;;;2.00;99.90;;;;;;2110212;67;20244;-77
2022/01/06 09:50:19;;;;;;;15.90;5.40;;;2.00;99.90;;;;;;2111700;67;20341;-77
2022/01/06 09:53:03;;;;;;;13.25;4.65;;;2.10;99.90;;;;;;2103846;68;20766;-78
2022/01/06 09:55:45;;;;;;;16.30;3.88;;;2.20;99.90;;;;;;2109900;67;20431;-80
2022/01/06 09:58:30;;;;;;;10.10;4.20;;;2.30;99.90;;;;;;2097025;68;20179;-78
2022/01/06 10:01:13;;;;;;;20.60;4.28;;;2.40;99.90;;;;;;2116001;67;20300;-77
2022/01/06 10:03:55;;;;;;;11.73;3.78;;;2.60;99.90;;;;;;2102256;67;20347;-78
2022/01/06 10:06:40;;;;;;;14.90;4.10;;;2.70;99.90;;;;;;2098997;67;20209;-77
2022/01/06 10:09:28;;;;;;;14.70;4.93;;;2.70;99.90;;;;;;2109444;67;20291;-82
2022/01/06 10:12:13;;;;;;;16.52;3.97;;;2.80;99.90;;;;;;2117058;67;20487;-77
2022/01/06 10:14:56;;;;;;;12.98;4.38;;;2.80;99.90;;;;;;2117146;67;20798;-74
2022/01/06 10:17:41;;;;;;;15.90;4.32;;;2.90;99.90;;;;;;2106434;67;20182;-76
2022/01/06 10:20:36;;;;;;;15.38;3.78;;;3.00;99.90;;;;;;2095995;67;20652;-75
2022/01/06 10:23:35;;;;;;;13.38;3.50;;;3.10;99.90;;;;;;2106563;67;20384;-75
2022/01/06 10:26:17;;;;;;;11.93;3.33;;;3.20;99.90;;;;;;2101839;67;20822;-76
2022/01/06 10:29:01;;;;;;;11.60;4.07;;;3.20;99.90;;;;;;2096311;68;20355;-74
2022/01/06 10:31:42;;;;;;;14.75;3.80;;;3.80;99.90;;;;;;2103659;67;20403;-76
2022/01/06 10:34:30;;;;;;;15.85;4.53;;;3.40;99.90;;;;;;2103925;67;20823;-76
2022/01/06 10:37:24;;;;;;;16.02;3.83;;;3.50;99.90;;;;;;2096097;67;20250;-76
2022/01/06 10:40:16;;;;;;;11.90;3.58;;;3.70;99.90;;;;;;2134908;66;20260;-76
2022/01/06 10:42:57;;;;;;;12.52;3.80;;;3.80;99.90;;;;;;2130294;67;20295;-77
2022/01/06 10:45:39;;;;;;;11.23;3.80;;;3.90;99.90;;;;;;2125368;67;20235;-76
2022/01/06 10:48:23;;;;;;;16.20;4.05;;;4.00;99.90;;;;;;2130224;67;21003;-77
2022/01/06 10:51:07;;;;;;;14.98;4.15;;;4.10;99.90;;;;;;2130779;67;20191;-78
2022/01/06 10:53:49;;;;;;;12.00;3.08;;;4.10;99.90;;;;;;2109502;67;20241;-75
2022/01/06 10:56:31;;;;;;;14.43;3.67;;;4.10;99.90;;;;;;2116384;67;20338;-73
2022/01/06 10:59:25;;;;;;;13.30;3.47;;;4.10;99.90;;;;;;2103632;67;20198;-77
2022/01/06 11:02:10;;;;;;;9.57;3.47;;;4.10;99.90;;;;;;2090426;68;20382;-77
2022/01/06 11:04:52;;;;;;;9.60;2.88;;;4.10;99.90;;;;;;2118560;67;20274;-76
2022/01/06 11:07:33;;;;;;;10.60;3.45;;;4.10;99.90;;;;;;2120466;67;20300;-79
2022/01/06 11:10:21;;;;;;;11.50;2.97;;;4.20;99.90;;;;;;2120835;67;20566;-74
2022/01/06 11:13:05;;;;;;;9.65;3.33;;;4.30;99.90;;;;;;2116876;67;20253;-77
2022/01/06 11:15:48;;;;;;;12.30;3.38;;;4.30;99.90;;;;;;2119293;67;20201;-80
2022/01/06 11:18:34;;;;;;;16.70;3.63;;;4.50;99.90;;;;;;2133748;66;20980;-82
2022/01/06 11:21:39;;;;;;;12.85;4.05;;;4.70;99.90;;;;;;2130472;66;20219;-75
2022/01/06 11:24:24;;;;;;;12.38;3.40;;;5.10;99.90;;;;;;2140822;66;20327;-77
2022/01/06 11:27:08;;;;;;;12.68;3.80;;;5.50;99.90;;;;;;2129434;66;20198;-77
2022/01/06 11:29:50;;;;;;;14.60;3.50;;;5.90;99.90;;;;;;2123108;67;20404;-77
2022/01/06 11:32:32;;;;;;;14.70;4.28;;;6.30;99.90;;;;;;2138299;66;20293;-75
2022/01/06 11:35:23;;;;;;;12.48;3.63;;;6.70;99.90;;;;;;2141523;66;20306;-77
2022/01/06 11:38:05;;;;;;;12.80;4.03;;;7.10;99.90;;;;;;2144035;66;20241;-78
2022/01/06 11:40:52;;;;;;;18.17;3.97;;;7.50;99.90;;;;;;2146321;66;20579;-79
2022/01/06 11:43:43;;;;;;;10.13;3.70;;;7.70;99.90;;;;;;2137264;66;20167;-77
2022/01/06 11:46:26;;;;;;;17.70;4.55;;;7.90;99.90;;;;;;2135419;66;20230;-76
2022/01/06 11:49:08;;;;;;;12.15;4.30;;;8.10;99.90;;;;;;2141330;66;20718;-75
2022/01/06 11:51:50;;;;;;;13.43;4.68;;;8.20;99.90;;;;;;2132470;66;20680;-76
2022/01/06 11:54:48;;;;;;;12.60;5.13;;;8.20;99.90;;;;;;2145359;66;20221;-76
2022/01/06 11:57:38;;;;;;;20.58;4.97;;;8.20;99.90;;;;;;2152250;66;20174;-77
2022/01/06 12:00:26;;;;;;;13.07;4.43;;;8.30;99.90;;;;;;2141303;66;21606;-80
2022/01/06 12:03:13;;;;;;;23.25;4.57;;;8.30;99.90;;;;;;2136990;66;20293;-76
2022/01/06 12:05:56;;;;;;;10.63;3.60;;;8.40;99.90;;;;;;2152316;66;20414;-77
2022/01/06 12:08:42;;;;;;;15.35;3.63;;;8.30;99.90;;;;;;2150426;66;20219;-79
2022/01/06 12:11:33;;;;;;;11.35;4.38;;;8.10;99.90;;;;;;2124496;67;20778;-78
2022/01/06 12:14:28;;;;;;;14.68;3.70;;;8.00;99.90;;;;;;2120487;67;20256;-78
2022/01/06 12:17:11;;;;;;;16.25;3.92;;;7.80;99.90;;;;;;2123524;67;20228;-77
2022/01/06 12:19:54;;;;;;;16.70;3.80;;;7.60;99.90;;;;;;2112563;67;20452;-76
2022/01/06 12:22:36;;;;;;;10.55;3.38;;;7.70;99.90;;;;;;2108261;67;20182;-73
2022/01/06 12:25:27;;;;;;;14.35;4.05;;;7.60;99.90;;;;;;2099085;67;20236;-77
2022/01/06 12:28:09;;;;;;;12.73;3.78;;;7.70;99.90;;;;;;2112063;67;20731;-75
2022/01/06 12:30:45;;;;;;;12.65;3.30;;;7.50;99.90;;;;;;2115614;67;20206;-78
2022/01/06 12:33:22;;;;;;;9.43;3.58;;;7.60;99.90;;;;;;2118280;67;20775;-76
2022/01/06 12:36:01;;;;;;;15.20;3.33;;;7.70;99.90;;;;;;2121854;67;20715;-74
2022/01/06 12:38:40;;;;;;;17.70;3.70;;;8.40;99.90;;;;;;2151786;66;20182;-75
2022/01/06 12:41:34;;;;;;;11.85;4.32;;;7.90;99.90;;;;;;2162515;66;20243;-76
2022/01/06 12:44:28;;;;;;;10.15;3.47;;;8.20;99.90;;;;;;2153590;66;20379;-74
2022/01/06 12:47:05;;;;;;;8.05;2.92;;;8.50;99.90;;;;;;2154045;66;20217;-77
2022/01/06 12:49:42;;;;;;;12.00;3.13;;;8.80;99.90;;;;;;2162066;66;20248;-77
2022/01/06 12:52:33;;;;;;;11.57;3.88;;;9.40;99.90;;;;;;2161587;66;20338;-77
2022/01/06 12:55:25;;;;;;;8.93;3.20;;;9.70;99.90;;;;;;2156854;66;20261;-77
2022/01/06 12:58:02;;;;;;;11.68;4.47;;;10.90;99.90;;;;;;2172733;65;20187;-76
2022/01/06 13:01:12;;;;;;;12.82;3.63;;;10.40;99.90;;;;;;2168299;65;20267;-75
2022/01/06 13:03:53;;;;;;;9.63;3.42;;;10.70;99.90;;;;;;2184342;65;20278;-77
2022/01/06 13:06:43;;;;;;;12.25;4.90;;;10.90;99.90;;;;;;2161101;66;20180;-75
2022/01/06 13:09:21;;;;;;;12.10;3.30;;;11.10;99.90;;;;;;2162924;66;20185;-78
2022/01/06 13:11:59;;;;;;;10.82;4.07;;;11.50;99.90;;;;;;2176275;65;20739;-78
2022/01/06 13:14:54;;;;;;;17.33;5.75;;;11.80;99.90;;;;;;2177391;65;20217;-78
2022/01/06 13:17:35;;;;;;;14.18;3.33;;;12.10;99.90;;;;;;2176825;65;20328;-78
2022/01/06 13:20:15;;;;;;;15.98;8.45;;;12.10;99.90;;;;;;2177894;65;20200;-78
2022/01/06 13:25:37;;;;;;;11.25;2.92;;;12.20;99.90;;;;;;2214195;64;20234;-76
2022/01/06 13:28:23;;;;;;;6.40;2.10;;;12.20;99.90;;;;;;2212326;64;20294;-77
2022/01/06 13:31:17;;;;;;;9.80;2.13;;;12.10;99.90;;;;;;2211618;64;20393;-79
2022/01/06 13:34:00;;;;;;;6.60;2.70;;;11.80;99.90;;;;;;2210559;64;20250;-76
2022/01/06 13:36:41;;;;;;;8.00;3.28;;;11.60;99.90;;;;;;2197436;65;20165;-77
2022/01/06 13:39:34;;;;;;;11.88;2.78;;;11.60;99.90;;;;;;2180762;65;20191;-77
2022/01/06 13:42:41;;;;;;;8.50;2.50;;;11.60;99.90;;;;;;2176050;65;20246;-79
2022/01/06 13:45:32;;;;;;;7.28;2.70;;;11.50;99.90;;;;;;2167488;65;20414;-80
2022/01/06 13:51:18;;;;;;;10.20;2.63;;;10.90;99.90;;;;;;2159823;66;20262;-73
2022/01/06 13:54:10;;;;;;;11.50;3.03;;;10.60;99.90;;;;;;2145070;66;20355;-72
2022/01/06 13:57:09;;;;;;;8.00;2.15;;;10.30;99.90;;;;;;2131293;67;21145;-80
2022/01/06 13:59:53;;;;;;;7.45;2.28;;;10.00;99.90;;;;;;2123421;67;20770;-76
2022/01/06 14:02:35;;;;;;;10.30;2.08;;;9.60;99.90;;;;;;2119649;67;20411;-79
2022/01/06 14:05:17;;;;;;;8.23;2.55;;;9.20;99.90;;;;;;2124599;67;20344;-77
2022/01/06 14:08:01;;;;;;;7.10;2.22;;;8.80;99.90;;;;;;2121484;67;20203;-77
2022/01/06 14:10:46;;;;;;;7.70;2.40;;;8.50;99.90;;;;;;2127105;67;20356;-76
2022/01/06 14:13:28;;;;;;;7.13;2.22;;;8.00;99.90;;;;;;2117371;67;20306;-75
2022/01/06 14:16:10;;;;;;;14.65;2.60;;;7.70;99.90;;;;;;2116314;67;20247;-75
2022/01/06 14:18:52;;;;;;;8.68;2.60;;;7.50;99.90;;;;;;2116522;67;20240;-77
2022/01/06 14:21:33;;;;;;;8.48;2.60;;;7.30;99.90;;;;;;2109465;67;20206;-76
2022/01/06 14:24:15;;;;;;;9.00;2.72;;;7.10;99.90;;;;;;2125352;67;20593;-78
2022/01/06 14:26:58;;;;;;;8.05;1.83;;;7.00;99.90;;;;;;2139012;66;20340;-76
2022/01/06 14:29:41;;;;;;;10.25;2.78;;;6.90;99.90;;;;;;2137625;67;20203;-76